Terminal Aerodrome Forecast
Issued by NWS Binghamton, NY

Home | Current Version | Previous Version | Text Only | Print | Product List | Glossary On
Versions: 1 2 3 4 5 6 7 8 9 10 11 12 13 14 15 16 17 18 19
986
FTUS41 KBGM 191738
TAFSYR
TAF
KSYR 191738Z 1918/2018 27006KT P6SM BKN015 OVC035
     FM200300 00000KT 5SM BR OVC015
     FM201200 11005KT P6SM OVC022
     FM201600 12006KT P6SM SCT025 BKN040=

USA.gov is the U.S. government's official web portal to all federal, state and local government web resources and services.